This is the latest recevied weather packets stored in our database for station/object KI4FRU. If no packets are shown the sender has not sent any weather packets the latest 10 day(s).
| Time | Temp. | Humidity | Pressure | Rain* | Wind** | Luminosity | Snow |
|---|---|---|---|---|---|---|---|
| 1777661053 | 21.67° C | 50% | 1052.5 hPa | 0 mm | - | 553 W/m² | - |
| 1777660747 | 21.11° C | 53% | 1052.7 hPa | 0 mm | - | 524 W/m² | - |
| 1777660445 | 22.22° C | 49% | 1052.5 hPa | 0 mm | - | 80 W/m² | - |
| 1777660141 | 21.11° C | 51% | 1052.6 hPa | 0 mm | - | 284 W/m² | - |
| 1777659838 | 21.11° C | 51% | 1052.6 hPa | 0 mm | - | 628 W/m² | - |
| 1777659535 | 22.78° C | 51% | 1052.7 hPa | 0 mm | - | 332 W/m² | - |
| 1777659232 | 21.67° C | 53% | 1052.9 hPa | 0 mm | - | 693 W/m² | - |
| 1777658930 | 21.11° C | 52% | 1052.9 hPa | 0 mm | - | 243 W/m² | - |
| 1777658625 | 19.44° C | 55% | 1053 hPa | 0 mm | - | 582 W/m² | - |
| 1777658323 | 22.22° C | 50% | 1053.2 hPa | 0 mm | - | 163 W/m² | - |
| 1777658019 | 22.22° C | 46% | 1053.2 hPa | 0 mm | - | 196 W/m² | - |
| 1777657716 | 20.56° C | 49% | 1053.3 hPa | 0 mm | - | 431 W/m² | - |
| 1777657413 | 20.56° C | 52% | 1053.2 hPa | 0 mm | - | 162 W/m² | - |
| 1777657111 | 19.44° C | 53% | 1053.5 hPa | 0 mm | - | 780 W/m² | - |
| 1777656809 | 22.22° C | 46% | 1053.3 hPa | 0 mm | - | 103 W/m² | - |
| 1777656504 | 21.11° C | 51% | 1053.5 hPa | 0 mm | - | 93 W/m² | - |
| 1777656199 | 19.44° C | 50% | 1053.6 hPa | 0 mm | - | 517 W/m² | - |
| 1777655895 | 20° C | 53% | 1053.7 hPa | 0 mm | - | 75 W/m² | - |
| 1777655600 | 20.56° C | 50% | 1053.8 hPa | 0 mm | - | 56 W/m² | - |
| 1777655289 | 19.44° C | 51% | 1053.8 hPa | 0 mm | - | 307 W/m² | - |
| 1777654986 | 20° C | 50% | 1054 hPa | 0 mm | - | 757 W/m² | - |
| 1777654683 | 21.11° C | 49% | 1054 hPa | 0 mm | - | 272 W/m² | - |
| 1777654381 | 20° C | 50% | 1054.1 hPa | 0 mm | - | 741 W/m² | - |
| 1777654078 | 20° C | 51% | 1054.1 hPa | 0 mm | - | 531 W/m² | - |
| 1777653775 | 19.44° C | 49% | 1054.2 hPa | 0 mm | - | 750 W/m² | - |
* Rain latest hour (hover to see other rain measurements)
** Current wind speed in m/s (hover to see current wind gust speed)